Time;durP1;ratioP1;P1;durP2;ratioP2;P2;SDS_P1;SDS_P2;PMS_P1;PMS_P2;Temp;Humidity;BMP_temperature;BMP_pressure;BME280_temperature;BME280_humidity;BME280_pressure;Samples;Min_cycle;Max_cycle;Signal;HPM_P1;HPM_P2
2022/10/04 00:01:55;;;;;;;0.77;0.55;;;12.10;87.90;;;;;;4861294;29;20185;-78
2022/10/04 00:04:28;;;;;;;0.43;0.35;;;12.10;87.90;;;;;;4877310;29;20052;-78
2022/10/04 00:07:07;;;;;;;0.22;0.22;;;12.10;87.90;;;;;;4861603;29;20041;-78
2022/10/04 00:09:42;;;;;;;0.40;0.40;;;12.20;87.90;;;;;;4876694;29;20037;-78
2022/10/04 00:12:21;;;;;;;0.90;0.50;;;12.10;87.90;;;;;;4863357;29;20515;-82
2022/10/04 00:14:47;;;;;;;1.42;0.70;;;12.10;88.00;;;;;;4863431;29;20734;-79
2022/10/04 00:17:23;;;;;;;0.50;0.47;;;12.20;88.00;;;;;;4863063;29;20380;-80
2022/10/04 00:19:53;;;;;;;0.90;0.50;;;12.10;88.00;;;;;;4862765;29;20051;-80
2022/10/04 00:22:22;;;;;;;0.32;0.30;;;12.10;88.00;;;;;;4878692;29;20059;-82
2022/10/04 00:25:16;;;;;;;0.55;0.50;;;12.10;88.00;;;;;;4863163;29;20029;-80
2022/10/04 00:28:16;;;;;;;0.68;0.40;;;12.10;88.10;;;;;;4864248;29;20038;-80
2022/10/04 00:30:42;;;;;;;0.50;0.50;;;12.10;88.10;;;;;;4880697;29;20559;-79
2022/10/04 00:33:08;;;;;;;0.77;0.40;;;12.10;88.00;;;;;;4879084;29;20040;-79
2022/10/04 00:35:48;;;;;;;0.88;0.45;;;12.10;88.10;;;;;;4880539;29;20120;-76
2022/10/04 00:38:24;;;;;;;1.65;0.60;;;12.10;88.10;;;;;;4863084;29;20048;-78
2022/10/04 00:41:05;;;;;;;0.55;0.40;;;12.10;88.10;;;;;;4879998;29;20625;-80
2022/10/04 00:43:41;;;;;;;0.85;0.40;;;12.10;88.20;;;;;;4862695;29;20051;-80
2022/10/04 00:46:17;;;;;;;0.30;0.30;;;12.10;88.20;;;;;;4878281;29;20057;-79
2022/10/04 00:48:47;;;;;;;0.50;0.50;;;12.10;88.20;;;;;;4862990;29;20037;-80
2022/10/04 00:51:37;;;;;;;0.70;0.40;;;12.10;88.30;;;;;;4878303;29;20043;-81
2022/10/04 00:54:11;;;;;;;1.05;0.50;;;12.20;88.30;;;;;;4863380;29;20064;-80
2022/10/04 00:56:52;;;;;;;0.50;0.50;;;12.10;88.30;;;;;;4862516;29;20132;-79
2022/10/04 00:59:37;;;;;;;0.55;0.40;;;12.10;88.30;;;;;;4847589;29;20044;-83
2022/10/04 01:02:12;;;;;;;0.90;0.40;;;12.00;88.30;;;;;;4877620;29;20100;-79
2022/10/04 01:04:58;;;;;;;0.65;0.60;;;12.10;88.40;;;;;;4879445;29;20037;-79
2022/10/04 01:07:31;;;;;;;0.85;0.60;;;12.00;88.40;;;;;;4862178;29;20436;-81
2022/10/04 01:10:07;;;;;;;1.05;0.60;;;12.00;88.50;;;;;;4877909;29;20044;-83
2022/10/04 01:12:49;;;;;;;0.63;0.43;;;12.00;88.40;;;;;;4878432;29;20037;-80
2022/10/04 01:15:49;;;;;;;1.05;0.75;;;12.00;88.50;;;;;;4862835;29;20089;-78
2022/10/04 01:18:29;;;;;;;0.50;0.50;;;12.00;88.50;;;;;;4883445;29;20036;-78
2022/10/04 01:21:25;;;;;;;0.30;0.30;;;12.00;88.60;;;;;;4848495;29;20044;-79
2022/10/04 01:24:14;;;;;;;0.40;0.40;;;12.00;88.60;;;;;;4865734;29;20523;-81
2022/10/04 01:26:43;;;;;;;0.68;0.50;;;12.10;88.60;;;;;;4874899;29;20045;-79
2022/10/04 01:29:24;;;;;;;0.90;0.55;;;12.00;88.50;;;;;;4862128;29;20029;-80
2022/10/04 01:31:53;;;;;;;0.90;0.60;;;12.10;88.60;;;;;;4862211;29;20128;-77
2022/10/04 01:34:22;;;;;;;0.77;0.45;;;12.00;88.50;;;;;;4877961;29;20173;-78
2022/10/04 01:36:51;;;;;;;1.48;0.50;;;12.00;88.60;;;;;;4878926;29;20069;-78
2022/10/04 01:39:20;;;;;;;0.80;0.50;;;12.00;88.60;;;;;;4879302;29;20085;-77
2022/10/04 01:42:15;;;;;;;0.73;0.73;;;12.00;88.60;;;;;;4877638;29;20068;-77
2022/10/04 01:45:06;;;;;;;0.35;0.35;;;12.00;88.60;;;;;;4855106;29;20021;-76
2022/10/04 01:47:41;;;;;;;0.95;0.55;;;12.10;88.70;;;;;;4898479;29;20478;-76
2022/10/04 01:50:19;;;;;;;0.57;0.52;;;12.00;88.70;;;;;;4884348;29;20037;-76
2022/10/04 01:52:53;;;;;;;0.50;0.50;;;12.00;88.70;;;;;;4886178;29;20033;-78
2022/10/04 01:55:25;;;;;;;0.80;0.60;;;11.90;88.70;;;;;;4901414;29;20065;-78
2022/10/04 01:58:00;;;;;;;0.38;0.38;;;12.00;88.80;;;;;;4892416;29;20038;-77
2022/10/04 02:00:27;;;;;;;0.60;0.60;;;11.90;88.70;;;;;;4886991;29;20109;-77
2022/10/04 02:03:03;;;;;;;0.63;0.50;;;11.90;88.80;;;;;;4869144;29;20049;-76
2022/10/04 02:05:35;;;;;;;0.73;0.60;;;11.90;88.80;;;;;;4890715;29;20029;-76
2022/10/04 02:08:10;;;;;;;0.52;0.50;;;11.90;88.80;;;;;;4899030;29;20037;-76
2022/10/04 02:10:38;;;;;;;0.45;0.45;;;11.90;88.90;;;;;;4898471;29;20069;-76
2022/10/04 02:13:09;;;;;;;0.70;0.50;;;11.80;88.80;;;;;;4898110;29;20053;-76
2022/10/04 02:15:38;;;;;;;0.68;0.55;;;11.90;88.90;;;;;;4898932;29;20037;-76
2022/10/04 02:18:12;;;;;;;0.70;0.60;;;11.90;88.90;;;;;;4880442;29;20037;-76
2022/10/04 02:20:42;;;;;;;0.40;0.40;;;11.80;88.80;;;;;;4882314;29;20069;-76
2022/10/04 02:23:10;;;;;;;0.40;0.40;;;11.90;89.00;;;;;;4867358;29;20053;-76
2022/10/04 02:25:36;;;;;;;0.65;0.60;;;11.80;88.90;;;;;;4900090;29;20049;-76
2022/10/04 02:28:04;;;;;;;0.63;0.60;;;11.80;88.90;;;;;;4899303;29;20089;-76
2022/10/04 02:30:37;;;;;;;0.77;0.70;;;11.80;88.90;;;;;;4899991;29;20052;-76
2022/10/04 02:33:04;;;;;;;0.47;0.47;;;11.90;89.00;;;;;;4897199;29;20044;-76
2022/10/04 02:35:34;;;;;;;1.23;0.60;;;11.80;89.00;;;;;;4898963;29;20097;-76
2022/10/04 02:38:11;;;;;;;0.68;0.50;;;11.80;89.00;;;;;;4899264;29;20056;-76
2022/10/04 02:40:52;;;;;;;0.52;0.52;;;11.80;89.10;;;;;;4884018;29;20048;-76
2022/10/04 02:43:24;;;;;;;0.70;0.57;;;11.80;89.10;;;;;;4898338;29;20064;-77
2022/10/04 02:45:56;;;;;;;0.55;0.55;;;11.80;89.10;;;;;;4900670;29;20050;-78
2022/10/04 02:48:44;;;;;;;0.60;0.60;;;11.70;89.10;;;;;;4902362;29;20048;-78
2022/10/04 02:51:39;;;;;;;0.75;0.70;;;11.80;89.20;;;;;;4901817;29;20048;-78
2022/10/04 02:54:26;;;;;;;0.80;0.50;;;11.70;89.30;;;;;;4901355;29;20048;-76
2022/10/04 02:56:53;;;;;;;0.68;0.52;;;11.80;89.30;;;;;;4883806;29;20040;-76
2022/10/04 02:59:21;;;;;;;0.45;0.45;;;11.80;89.20;;;;;;4899773;29;20108;-76
2022/10/04 03:01:57;;;;;;;0.70;0.60;;;11.80;89.20;;;;;;4884061;29;20041;-76
2022/10/04 03:04:27;;;;;;;0.60;0.60;;;11.70;89.30;;;;;;4899444;29;20032;-76
2022/10/04 03:06:56;;;;;;;0.77;0.60;;;11.50;89.20;;;;;;4899059;29;20044;-76
2022/10/04 03:09:24;;;;;;;0.68;0.60;;;11.60;89.30;;;;;;4898518;29;20033;-76
2022/10/04 03:14:45;;;;;;;0.95;0.80;;;11.60;89.40;;;;;;5529418;23;20051;-76
2022/10/04 03:17:14;;;;;;;0.88;0.70;;;11.50;89.30;;;;;;4917751;29;20123;-76
2022/10/04 03:19:41;;;;;;;0.93;0.60;;;11.50;89.40;;;;;;4914888;29;20112;-78
2022/10/04 03:22:10;;;;;;;0.38;0.38;;;11.50;89.50;;;;;;4912900;29;20073;-77
2022/10/04 03:24:45;;;;;;;0.52;0.52;;;11.50;89.50;;;;;;4917657;29;20076;-76
2022/10/04 03:27:18;;;;;;;0.82;0.57;;;11.50;89.60;;;;;;4917727;29;20141;-76
2022/10/04 03:29:45;;;;;;;0.57;0.57;;;11.40;89.60;;;;;;4917742;29;20169;-76
2022/10/04 03:32:14;;;;;;;0.73;0.50;;;11.40;89.60;;;;;;4899874;29;20043;-76
2022/10/04 03:34:48;;;;;;;0.60;0.60;;;11.40;89.60;;;;;;4900910;29;20072;-76
2022/10/04 03:37:16;;;;;;;0.90;0.50;;;11.40;89.60;;;;;;4917447;29;20056;-77
2022/10/04 03:39:46;;;;;;;0.90;0.60;;;11.30;89.60;;;;;;4919353;29;20049;-77
2022/10/04 03:42:27;;;;;;;1.00;0.60;;;11.30;89.70;;;;;;4919999;29;20029;-78
2022/10/04 03:44:55;;;;;;;;;;;11.30;89.70;;;;;;4920055;29;20064;-78
2022/10/04 03:47:26;;;;;;;0.55;0.55;;;11.20;89.60;;;;;;4903854;29;19908;-77
2022/10/04 03:49:54;;;;;;;0.90;0.60;;;11.20;89.60;;;;;;4919252;29;20079;-78
2022/10/04 03:52:29;;;;;;;0.85;0.70;;;11.20;89.60;;;;;;4919759;29;20052;-78
2022/10/04 03:54:59;;;;;;;1.08;0.68;;;11.10;89.70;;;;;;4862262;29;20038;-78
2022/10/04 03:57:30;;;;;;;0.88;0.70;;;11.10;89.80;;;;;;4847526;29;20054;-77
2022/10/04 03:59:58;;;;;;;0.55;0.55;;;11.00;89.80;;;;;;4811079;29;20058;-78
2022/10/04 04:02:38;;;;;;;0.95;0.80;;;11.10;89.90;;;;;;4781744;29;20066;-78
2022/10/04 04:05:23;;;;;;;0.90;0.68;;;10.90;89.90;;;;;;4793241;29;20090;-78
2022/10/04 04:08:02;;;;;;;0.73;0.70;;;11.00;90.00;;;;;;4758230;30;20082;-78
2022/10/04 04:10:34;;;;;;;0.50;0.50;;;11.00;90.00;;;;;;4719669;30;20041;-78
2022/10/04 04:13:10;;;;;;;1.13;0.98;;;10.90;90.00;;;;;;4705122;30;20049;-78
2022/10/04 04:15:42;;;;;;;0.70;0.70;;;11.00;90.00;;;;;;4720009;30;20045;-77
2022/10/04 04:18:27;;;;;;;0.90;0.80;;;10.90;90.00;;;;;;4674665;30;20042;-77
2022/10/04 04:20:57;;;;;;;1.27;1.00;;;10.90;90.00;;;;;;5262295;23;20068;-76
2022/10/04 04:23:31;;;;;;;1.10;0.90;;;10.90;90.00;;;;;;4878982;29;20049;-76
2022/10/04 04:26:13;;;;;;;0.70;0.63;;;11.00;90.00;;;;;;4901140;29;20045;-77
2022/10/04 04:28:47;;;;;;;1.10;1.00;;;10.80;90.00;;;;;;4901085;29;20480;-77
2022/10/04 04:31:35;;;;;;;1.30;0.70;;;10.70;89.90;;;;;;4882264;29;20030;-78
2022/10/04 04:34:05;;;;;;;0.93;0.80;;;10.70;90.00;;;;;;4868449;29;20041;-77
2022/10/04 04:36:39;;;;;;;0.85;0.70;;;10.80;90.00;;;;;;4899093;29;20065;-77
2022/10/04 04:42:05;;;;;;;0.80;0.70;;;10.70;90.00;;;;;;4900802;29;20057;-78
2022/10/04 04:44:32;;;;;;;0.80;0.80;;;10.60;90.00;;;;;;4884206;29;20029;-78
2022/10/04 04:46:59;;;;;;;0.68;0.63;;;10.60;90.00;;;;;;4896101;29;20056;-75
2022/10/04 04:49:30;;;;;;;1.55;1.15;;;10.60;90.00;;;;;;4881497;29;20033;-80
2022/10/04 04:51:56;;;;;;;1.05;0.70;;;10.60;90.00;;;;;;4850127;29;20050;-80
2022/10/04 04:54:26;;;;;;;0.80;0.80;;;10.50;90.00;;;;;;4833757;29;20500;-80
2022/10/04 04:56:54;;;;;;;1.15;0.90;;;10.60;90.10;;;;;;4847255;29;20569;-81
2022/10/04 04:59:22;;;;;;;1.15;0.65;;;10.50;90.10;;;;;;4867255;29;20038;-81
2022/10/04 05:01:49;;;;;;;1.17;1.00;;;10.40;90.10;;;;;;4836134;29;20049;-81
2022/10/04 05:04:20;;;;;;;1.15;1.00;;;10.40;90.10;;;;;;4851062;29;20045;-81
2022/10/04 05:06:57;;;;;;;1.05;0.80;;;10.40;90.10;;;;;;4865800;29;20030;-80
2022/10/04 05:09:27;;;;;;;0.73;0.73;;;10.50;90.10;;;;;;4837441;29;20041;-79
2022/10/04 05:12:00;;;;;;;0.65;0.65;;;10.40;90.10;;;;;;4868873;29;20070;-79
2022/10/04 05:14:26;;;;;;;1.33;0.80;;;10.30;90.10;;;;;;4870155;29;20061;-78
2022/10/04 05:16:53;;;;;;;0.60;0.60;;;10.30;90.10;;;;;;4873365;29;20065;-78
2022/10/04 05:19:30;;;;;;;0.90;0.80;;;10.30;90.10;;;;;;4870874;29;20057;-79
2022/10/04 05:21:58;;;;;;;1.33;0.85;;;10.30;90.10;;;;;;4871140;29;20057;-78
2022/10/04 05:24:36;;;;;;;2.78;1.05;;;10.30;90.10;;;;;;4868327;29;20049;-79
2022/10/04 05:27:05;;;;;;;1.58;0.80;;;10.20;90.10;;;;;;4852388;29;20109;-78
2022/10/04 05:29:34;;;;;;;0.98;0.88;;;10.20;90.20;;;;;;4883053;29;20116;-78
2022/10/04 05:32:26;;;;;;;1.48;0.80;;;10.20;90.10;;;;;;4864089;29;20033;-78
2022/10/04 05:34:53;;;;;;;1.00;0.90;;;10.20;90.10;;;;;;4879435;29;20056;-78
2022/10/04 05:37:42;;;;;;;1.13;0.88;;;10.10;90.10;;;;;;4878949;29;20090;-78
2022/10/04 05:40:25;;;;;;;0.93;0.82;;;10.20;90.10;;;;;;4862208;29;20140;-78
2022/10/04 05:42:53;;;;;;;1.00;0.63;;;10.10;90.10;;;;;;4879429;29;20497;-78
2022/10/04 05:45:25;;;;;;;1.00;0.80;;;10.10;90.10;;;;;;4879079;29;20045;-78
2022/10/04 05:47:53;;;;;;;1.02;0.85;;;10.10;90.10;;;;;;4844549;29;20121;-78
2022/10/04 05:50:40;;;;;;;1.30;0.73;;;10.00;90.10;;;;;;4860179;29;20177;-78
2022/10/04 05:53:34;;;;;;;0.93;0.70;;;10.00;90.10;;;;;;4844306;29;20104;-76
2022/10/04 05:56:18;;;;;;;1.40;0.75;;;10.00;90.10;;;;;;4821841;29;20057;-78
2022/10/04 05:59:20;;;;;;;0.60;0.60;;;10.10;90.10;;;;;;4879423;29;20036;-78
2022/10/04 06:01:53;;;;;;;;;;;10.20;90.10;;;;;;4879475;29;20181;-77
2022/10/04 06:04:46;;;;;;;0.70;0.70;;;10.10;90.10;;;;;;4877606;29;20326;-78
2022/10/04 06:07:27;;;;;;;1.33;0.60;;;10.10;90.00;;;;;;4845963;29;20041;-77
2022/10/04 06:10:33;;;;;;;0.88;0.70;;;10.10;90.00;;;;;;4845108;29;20044;-77
2022/10/04 06:13:20;;;;;;;1.08;0.75;;;10.10;89.90;;;;;;4847090;29;20050;-78
2022/10/04 06:16:06;;;;;;;1.17;0.88;;;10.20;89.90;;;;;;4845705;29;20074;-76
2022/10/04 06:18:52;;;;;;;0.80;0.80;;;10.10;89.90;;;;;;4843600;29;20518;-77
2022/10/04 06:21:32;;;;;;;1.20;0.70;;;10.10;89.90;;;;;;4877080;29;20033;-77
2022/10/04 06:24:09;;;;;;;0.85;0.70;;;10.10;89.90;;;;;;4878408;29;20053;-77
2022/10/04 06:26:42;;;;;;;1.60;0.90;;;10.00;89.90;;;;;;4878848;29;20029;-77
2022/10/04 06:29:15;;;;;;;1.52;0.90;;;10.10;89.90;;;;;;4878567;29;20041;-77
2022/10/04 06:32:07;;;;;;;1.40;0.80;;;10.10;89.90;;;;;;4878669;29;20436;-77
2022/10/04 06:35:00;;;;;;;0.95;0.60;;;10.10;89.90;;;;;;4846122;29;20046;-76
2022/10/04 06:37:57;;;;;;;0.75;0.73;;;10.30;90.00;;;;;;4843190;29;20057;-77
2022/10/04 06:40:36;;;;;;;1.05;0.90;;;10.20;90.00;;;;;;4843812;29;20117;-76
2022/10/04 06:43:23;;;;;;;1.25;0.90;;;10.20;89.90;;;;;;4892905;29;20155;-74
2022/10/04 06:46:33;;;;;;;1.08;0.80;;;10.20;89.90;;;;;;4859600;29;20053;-75
2022/10/04 07:21:52;;;;;;;0.60;0.50;;;10.30;89.50;;;;;;4747337;30;20456;-76
2022/10/04 07:25:20;;;;;;;1.13;0.70;;;10.40;89.50;;;;;;4741126;30;20132;-76
2022/10/04 07:32:10;;;;;;;0.70;0.60;;;10.50;89.40;;;;;;4744854;30;20524;-77
2022/10/04 07:35:18;;;;;;;0.65;0.65;;;10.50;89.30;;;;;;4711602;30;20067;-74
2022/10/04 07:38:11;;;;;;;1.45;0.93;;;10.70;89.30;;;;;;4698060;30;20057;-74
2022/10/04 07:41:02;;;;;;;0.68;0.63;;;10.80;89.20;;;;;;4677005;30;20631;-75
2022/10/04 07:43:35;;;;;;;0.90;0.70;;;10.80;89.00;;;;;;4660867;30;20046;-74
2022/10/04 07:47:29;;;;;;;0.60;0.60;;;11.00;88.90;;;;;;4645152;30;20771;-76
2022/10/04 07:50:37;;;;;;;1.17;0.60;;;11.20;88.70;;;;;;4644625;30;20054;-76
2022/10/04 07:56:38;;;;;;;1.50;0.95;;;11.50;88.10;;;;;;4642050;30;20074;-75
2022/10/04 08:03:11;;;;;;;2.38;1.10;;;11.70;87.90;;;;;;4684804;30;20164;-75
2022/10/04 08:05:46;;;;;;;1.00;0.90;;;11.70;87.80;;;;;;4706904;30;20057;-75
2022/10/04 08:26:35;;;;;;;2.10;1.13;;;12.20;87.20;;;;;;4712159;30;20143;-76
2022/10/04 08:40:00;;;;;;;0.90;0.60;;;12.50;87.00;;;;;;4749078;30;20106;-75
2022/10/04 08:43:00;;;;;;;1.35;0.80;;;12.50;86.80;;;;;;4703352;30;20052;-75
2022/10/04 08:45:56;;;;;;;1.63;1.13;;;12.50;86.90;;;;;;4681022;30;20038;-76
2022/10/04 08:49:06;;;;;;;1.92;1.30;;;12.60;87.00;;;;;;4666274;30;20132;-74
2022/10/04 08:52:11;;;;;;;1.55;1.10;;;12.60;86.90;;;;;;4683053;30;20039;-76
2022/10/04 08:55:22;;;;;;;1.10;0.88;;;12.70;86.90;;;;;;4779787;29;20069;-75
2022/10/04 09:01:43;;;;;;;1.35;0.98;;;12.80;86.60;;;;;;4835837;29;20065;-75
2022/10/04 09:04:50;;;;;;;2.60;1.58;;;12.90;86.50;;;;;;4840655;29;20057;-76
2022/10/04 09:07:50;;;;;;;2.50;1.33;;;13.00;86.40;;;;;;4790463;29;20076;-76
2022/10/04 09:14:55;;;;;;;2.35;1.50;;;13.10;86.20;;;;;;4729507;30;20065;-75
2022/10/04 09:31:41;;;;;;;2.90;1.45;;;13.40;85.60;;;;;;4713881;30;20048;-76
2022/10/04 09:41:33;;;;;;;;;;;13.70;85.40;;;;;;4695610;30;20084;-75
2022/10/04 09:44:52;;;;;;;1.88;1.20;;;13.70;85.10;;;;;;4701863;30;19918;-76
2022/10/04 09:48:02;;;;;;;3.15;1.33;;;13.80;85.00;;;;;;4703851;30;20394;-74
2022/10/04 09:58:36;;;;;;;2.10;1.20;;;13.90;84.80;;;;;;4760668;30;20100;-77
2022/10/04 10:01:22;;;;;;;2.42;1.60;;;14.10;84.60;;;;;;4767992;30;20487;-75
2022/10/04 10:18:54;;;;;;;1.75;1.27;;;14.40;83.90;;;;;;4711826;30;20062;-75
2022/10/04 10:29:11;;;;;;;2.08;1.40;;;14.60;83.60;;;;;;4713263;30;20048;-77
2022/10/04 11:44:19;;;;;;;1.73;1.10;;;16.20;80.40;;;;;;4784052;30;20090;-77
2022/10/04 11:55:23;;;;;;;1.85;1.23;;;16.50;79.70;;;;;;4798827;29;20529;-77
2022/10/04 12:16:51;;;;;;;1.73;1.37;;;17.00;78.50;;;;;;4833902;29;20053;-76
2022/10/04 12:19:51;;;;;;;1.70;1.10;;;17.00;78.60;;;;;;4785430;29;20084;-76
2022/10/04 12:26:31;;;;;;;2.00;1.17;;;17.00;78.70;;;;;;4783788;29;20488;-75
2022/10/04 12:29:33;;;;;;;1.45;1.13;;;17.00;78.70;;;;;;4785743;29;20043;-75
2022/10/04 12:32:31;;;;;;;2.15;1.13;;;17.10;78.70;;;;;;4750142;30;20040;-76
2022/10/04 12:35:21;;;;;;;2.03;1.20;;;17.10;78.60;;;;;;4757331;30;20047;-76
2022/10/04 12:38:23;;;;;;;2.58;1.20;;;17.10;78.40;;;;;;4752117;30;20044;-75
2022/10/04 12:41:23;;;;;;;2.47;1.58;;;17.10;78.40;;;;;;4752387;30;20125;-75
2022/10/04 12:44:06;;;;;;;2.58;1.60;;;17.20;78.00;;;;;;4767562;29;20208;-75
2022/10/04 12:46:53;;;;;;;2.15;1.35;;;17.30;77.90;;;;;;4821460;29;20039;-76
2022/10/04 12:49:38;;;;;;;1.33;1.10;;;17.50;77.60;;;;;;4824599;29;20038;-77
2022/10/04 12:52:17;;;;;;;1.10;1.00;;;17.70;77.20;;;;;;4822002;29;20050;-78
2022/10/04 12:54:52;;;;;;;1.48;1.10;;;17.80;76.80;;;;;;4823683;29;20045;-77
2022/10/04 12:57:46;;;;;;;2.20;1.25;;;17.90;76.60;;;;;;4840699;29;20101;-77
2022/10/04 13:00:21;;;;;;;1.20;0.93;;;18.00;76.50;;;;;;4840878;29;20064;-76
2022/10/04 13:03:25;;;;;;;1.50;1.23;;;18.10;76.20;;;;;;4833989;29;20045;-76
2022/10/04 13:06:09;;;;;;;1.92;1.40;;;18.20;75.80;;;;;;4850044;29;20045;-76
2022/10/04 13:09:21;;;;;;;2.00;1.27;;;18.30;75.70;;;;;;4832481;29;20044;-77
2022/10/04 13:12:54;;;;;;;2.55;1.40;;;18.40;75.30;;;;;;4818967;29;20053;-76
2022/10/04 13:43:03;;;;;;;2.17;1.17;;;18.50;74.60;;;;;;4757694;30;20062;-75
2022/10/04 13:58:59;;;;;;;0.82;0.70;;;18.50;74.50;;;;;;4653255;30;20046;-73
2022/10/04 14:05:33;;;;;;;1.85;1.17;;;18.50;74.80;;;;;;4641695;30;20053;-75
2022/10/04 14:19:27;;;;;;;2.65;1.17;;;18.40;74.50;;;;;;4605504;31;20412;-75
2022/10/04 14:22:20;;;;;;;1.30;1.00;;;18.40;74.50;;;;;;4580069;31;20440;-73
2022/10/04 14:25:09;;;;;;;1.10;0.90;;;18.30;74.50;;;;;;4633473;30;20053;-74
2022/10/04 14:28:08;;;;;;;2.17;1.17;;;18.20;74.50;;;;;;4678089;30;20053;-75
2022/10/04 14:31:00;;;;;;;1.05;0.80;;;18.20;74.50;;;;;;4689479;30;20034;-74
2022/10/04 14:33:55;;;;;;;1.15;1.00;;;18.20;74.70;;;;;;4693533;30;20054;-75
2022/10/04 14:36:44;;;;;;;2.28;0.95;;;18.20;74.70;;;;;;4678972;30;20475;-75
2022/10/04 14:39:40;;;;;;;1.48;0.95;;;18.10;74.60;;;;;;4685871;30;20053;-75
2022/10/04 14:42:30;;;;;;;1.33;1.05;;;18.10;74.70;;;;;;4768298;30;20048;-74
2022/10/04 14:45:23;;;;;;;1.52;1.10;;;18.00;74.60;;;;;;4766793;30;20145;-74
2022/10/04 14:48:21;;;;;;;0.98;0.90;;;18.00;74.70;;;;;;4784494;29;20049;-74
2022/10/04 14:51:18;;;;;;;1.10;0.80;;;18.00;74.60;;;;;;5150804;27;20157;-75
2022/10/04 14:54:11;;;;;;;0.80;0.80;;;18.10;74.70;;;;;;5112459;28;20039;-75
2022/10/04 14:56:49;;;;;;;1.17;0.80;;;18.10;74.70;;;;;;5129734;28;20039;-76
2022/10/04 14:59:45;;;;;;;1.17;0.98;;;18.10;74.70;;;;;;5130028;28;20058;-76
2022/10/04 15:02:34;;;;;;;1.55;0.90;;;18.10;74.70;;;;;;5131272;28;20050;-76
2022/10/04 15:05:40;;;;;;;1.55;0.77;;;18.00;74.60;;;;;;5129923;28;20386;-76
2022/10/04 15:08:40;;;;;;;0.80;0.80;;;18.10;74.70;;;;;;5114678;28;20109;-77
2022/10/04 15:40:57;;;;;;;1.60;0.90;;;18.00;74.70;;;;;;4852098;29;20044;-76
2022/10/04 15:44:14;;;;;;;1.88;0.98;;;18.10;74.80;;;;;;4853452;29;20046;-76
2022/10/04 16:34:29;;;;;;;0.52;0.52;;;17.30;76.30;;;;;;4795092;29;20142;-76
2022/10/04 16:37:12;;;;;;;0.57;0.57;;;17.20;76.30;;;;;;4804634;29;20063;-75
2022/10/04 16:39:58;;;;;;;0.77;0.50;;;17.10;76.50;;;;;;4789020;29;20137;-75
2022/10/04 16:42:46;;;;;;;0.40;0.40;;;17.00;76.60;;;;;;4790233;29;20071;-75
2022/10/04 16:45:49;;;;;;;0.40;0.40;;;17.00;76.70;;;;;;4820617;29;20524;-74
2022/10/04 16:48:36;;;;;;;0.60;0.60;;;16.90;76.90;;;;;;4841223;29;20042;-76
2022/10/04 16:51:30;;;;;;;1.20;0.70;;;16.90;77.10;;;;;;4825528;29;20144;-75
2022/10/04 16:54:16;;;;;;;0.88;0.60;;;16.70;77.20;;;;;;4840766;29;20140;-74
2022/10/04 16:57:21;;;;;;;2.22;0.68;;;16.70;77.40;;;;;;4840579;29;20034;-75
2022/10/04 16:59:50;;;;;;;0.40;0.40;;;16.60;77.60;;;;;;4830423;29;20144;-75
2022/10/04 17:02:32;;;;;;;1.33;0.80;;;16.60;77.70;;;;;;4841145;29;20054;-75
2022/10/04 17:05:30;;;;;;;2.30;0.63;;;16.50;77.80;;;;;;4909975;29;20111;-75
2022/10/04 17:08:21;;;;;;;0.60;0.52;;;16.50;77.90;;;;;;4917559;29;20040;-74
2022/10/04 17:11:16;;;;;;;1.58;0.70;;;16.30;78.00;;;;;;4916604;29;20040;-76
2022/10/04 17:13:52;;;;;;;0.80;0.60;;;16.30;78.30;;;;;;4901489;29;20040;-74
2022/10/04 17:16:37;;;;;;;0.73;0.60;;;16.30;78.40;;;;;;4916879;29;20032;-74
2022/10/04 17:19:29;;;;;;;1.42;0.75;;;16.10;78.40;;;;;;4917070;29;20096;-74
2022/10/04 17:22:13;;;;;;;0.75;0.50;;;16.20;78.50;;;;;;4884723;29;20092;-74
2022/10/04 17:24:53;;;;;;;0.70;0.55;;;16.10;78.60;;;;;;4897867;29;20047;-74
2022/10/04 17:27:32;;;;;;;0.75;0.60;;;16.00;78.70;;;;;;4898302;29;20073;-74
2022/10/04 17:30:20;;;;;;;0.65;0.40;;;15.90;78.90;;;;;;4896076;29;20570;-74
2022/10/04 17:32:59;;;;;;;1.13;0.73;;;15.80;79.00;;;;;;4897847;29;20483;-74
2022/10/04 17:36:05;;;;;;;0.57;0.52;;;15.70;79.20;;;;;;4900014;29;20043;-74
2022/10/04 17:38:50;;;;;;;0.55;0.55;;;15.70;79.30;;;;;;4916615;29;20092;-74
2022/10/04 17:41:53;;;;;;;0.68;0.68;;;15.70;79.40;;;;;;4913750;29;20501;-74
2022/10/04 17:44:33;;;;;;;2.35;0.88;;;15.70;79.40;;;;;;4916394;29;20487;-74
2022/10/04 17:47:16;;;;;;;1.20;0.85;;;15.70;79.30;;;;;;4914146;29;20048;-74
2022/10/04 17:55:51;;;;;;;1.00;0.70;;;15.80;78.70;;;;;;4913639;29;20075;-74
2022/10/04 17:58:24;;;;;;;1.17;0.70;;;15.80;78.70;;;;;;4916694;29;20352;-74
2022/10/04 18:01:06;;;;;;;0.70;0.70;;;15.80;78.70;;;;;;4913888;29;20119;-74
2022/10/04 18:03:51;;;;;;;0.63;0.60;;;15.80;78.80;;;;;;4916785;29;20047;-74
2022/10/04 18:06:28;;;;;;;1.25;0.73;;;15.70;78.90;;;;;;4916168;29;20112;-76
2022/10/04 18:09:09;;;;;;;0.70;0.60;;;15.70;78.90;;;;;;4914163;29;20461;-78
2022/10/04 18:11:47;;;;;;;1.83;0.73;;;15.70;78.90;;;;;;4916519;29;20040;-74
2022/10/04 18:14:46;;;;;;;1.20;0.80;;;15.70;78.80;;;;;;4914523;29;20043;-74
2022/10/04 18:17:35;;;;;;;1.75;0.60;;;15.70;78.80;;;;;;4914602;29;20079;-77
2022/10/04 18:20:24;;;;;;;1.00;0.88;;;15.70;78.90;;;;;;4915886;29;20091;-77
2022/10/04 18:22:57;;;;;;;1.63;1.00;;;15.70;78.80;;;;;;4900474;29;20043;-75
2022/10/04 18:25:25;;;;;;;1.00;0.80;;;15.80;78.70;;;;;;4915931;29;20040;-74
2022/10/04 18:28:11;;;;;;;1.00;0.90;;;15.80;78.60;;;;;;4913007;29;20602;-74
2022/10/04 18:30:58;;;;;;;1.23;1.00;;;15.80;78.70;;;;;;4913213;29;20044;-74
2022/10/04 18:33:48;;;;;;;1.02;0.88;;;15.80;78.60;;;;;;4914850;29;20059;-74
2022/10/04 18:36:30;;;;;;;1.03;0.90;;;15.80;78.60;;;;;;4914107;29;20024;-74
2022/10/04 18:39:17;;;;;;;1.60;1.00;;;15.80;78.60;;;;;;4913308;29;20044;-74
2022/10/04 18:41:51;;;;;;;1.73;1.13;;;15.80;78.60;;;;;;4913187;29;20036;-73
2022/10/04 18:44:22;;;;;;;1.30;1.10;;;15.80;78.50;;;;;;4898580;29;20063;-74
2022/10/04 18:46:55;;;;;;;1.52;0.98;;;15.80;78.40;;;;;;4915791;29;20044;-74
2022/10/04 18:49:24;;;;;;;1.20;1.00;;;15.80;78.40;;;;;;4913938;29;20063;-75
2022/10/04 18:52:21;;;;;;;1.35;0.90;;;15.70;78.60;;;;;;4914438;29;20052;-75
2022/10/04 18:55:06;;;;;;;1.80;0.90;;;15.70;78.70;;;;;;4913840;29;20036;-75
2022/10/04 19:01:58;;;;;;;2.35;0.93;;;15.70;78.70;;;;;;4915658;29;20115;-74
2022/10/04 19:03:32;;;;;;;0.85;0.80;;;15.80;78.70;;;;;;4915497;29;20127;-74
2022/10/04 19:06:18;;;;;;;0.65;0.65;;;15.80;78.70;;;;;;4915851;29;20039;-75
2022/10/04 19:09:10;;;;;;;1.50;0.88;;;15.70;78.70;;;;;;4913107;29;20036;-75
2022/10/04 19:11:45;;;;;;;1.55;1.17;;;15.70;78.60;;;;;;4914366;29;20492;-75
2022/10/04 19:14:40;;;;;;;1.52;1.17;;;15.70;78.60;;;;;;4915544;29;20044;-75
2022/10/04 19:17:25;;;;;;;1.27;0.85;;;15.80;78.50;;;;;;4901908;29;20427;-76
2022/10/04 19:20:08;;;;;;;1.45;1.08;;;15.70;78.40;;;;;;4913612;29;20040;-74
2022/10/04 19:23:02;;;;;;;1.67;1.15;;;15.80;78.40;;;;;;4915227;29;20032;-75
2022/10/04 19:25:47;;;;;;;2.35;1.30;;;16.00;78.50;;;;;;4914891;29;20044;-75
2022/10/04 19:28:25;;;;;;;1.88;1.20;;;15.90;78.40;;;;;;4915505;29;20503;-74
2022/10/04 19:31:14;;;;;;;1.30;1.20;;;15.80;78.30;;;;;;4913054;29;20150;-76
2022/10/04 19:33:48;;;;;;;1.55;1.05;;;15.90;78.40;;;;;;4915303;29;20037;-76
2022/10/04 19:36:44;;;;;;;1.42;1.08;;;15.90;78.40;;;;;;4913468;29;20040;-76
2022/10/04 19:39:41;;;;;;;1.58;1.17;;;15.90;78.40;;;;;;4919443;29;20487;-77
2022/10/04 19:42:19;;;;;;;2.28;1.30;;;15.90;78.40;;;;;;4918700;29;20333;-78
2022/10/04 19:45:15;;;;;;;2.13;1.40;;;15.90;78.40;;;;;;4919177;29;20036;-77
2022/10/04 19:47:49;;;;;;;2.35;1.30;;;15.90;78.30;;;;;;4917552;29;20044;-77
2022/10/04 19:50:21;;;;;;;2.15;1.40;;;15.90;78.30;;;;;;4901899;29;20051;-77
2022/10/04 19:53:16;;;;;;;1.30;1.17;;;15.90;78.30;;;;;;4915456;29;20036;-76
2022/10/04 19:55:54;;;;;;;2.65;1.48;;;15.90;78.30;;;;;;4917515;29;20091;-76
2022/10/04 19:58:44;;;;;;;2.20;1.55;;;16.00;78.40;;;;;;4915706;29;20036;-75
2022/10/04 20:01:13;;;;;;;2.35;1.42;;;16.00;78.40;;;;;;4918460;29;20039;-75
2022/10/04 20:03:39;;;;;;;2.63;1.50;;;15.90;78.30;;;;;;4919194;29;20036;-75
2022/10/04 20:06:06;;;;;;;2.80;1.52;;;15.90;78.30;;;;;;4918897;29;20025;-73
2022/10/04 20:08:51;;;;;;;2.35;1.48;;;16.00;78.40;;;;;;4918692;29;20124;-74
2022/10/04 20:11:26;;;;;;;2.33;1.40;;;15.90;78.30;;;;;;4916755;29;20550;-74
2022/10/04 20:14:32;;;;;;;2.03;1.45;;;16.00;78.40;;;;;;4915552;29;20435;-75
2022/10/04 20:17:03;;;;;;;3.40;1.50;;;15.90;78.40;;;;;;4902212;29;20120;-77
2022/10/04 20:19:40;;;;;;;2.28;1.45;;;16.00;78.40;;;;;;4916201;29;20076;-75
2022/10/04 20:22:26;;;;;;;2.75;1.75;;;15.90;78.30;;;;;;4918461;29;20047;-76
2022/10/04 20:24:52;;;;;;;2.97;1.60;;;16.00;78.40;;;;;;4915395;29;20028;-75
2022/10/04 20:27:58;;;;;;;2.47;1.35;;;15.90;78.30;;;;;;4918243;29;20047;-75
2022/10/04 20:30:24;;;;;;;3.60;1.30;;;15.90;78.40;;;;;;4905270;29;20052;-78